PPS weather

Puerto Princesa Airport
Puerto Princesa City, Palawan Province, Philippines

Public forecast

Using degrees Celsius for public forecast. Weather courtesy of forecast.io.

METAR (pilot weather report)

Retrieved 2019/06/18 00:00 UTC (22 seconds ago):

RPVP 180000Z 25002KT 9999 FEW019 29/26 Q1010 RMK A2983

TAF (pilot weather forecast)

Forecast is more than 12 hours old.

Retrieved 2019/06/17 00:01 UTC (24 hours ago):

TAF RPVP 172300Z 1800/1824 27005KT 9999 FEW019 SCT080 BKN240 TEMPO 1802/1808 12007KT -SHRA FEW017CB FEW019 BKN080